Airfield :
LOGIN :

Register | Disclaimer

   EN    FR    IT 

 










Legend :    VFR   Marginal VFR   IFR   Intensive IFR   Very Intensive IFR
Visi :
Ceiling :
>= 8 km
>= 3000ft
5 to 8 km
1000 to 3000 ft
1500m to 5 km
500 to 1000 ft
800 to 1500m
200 to 500 ft
< 800m
< 200 ft
Symbols :   Thunderstorms  Fog  Heavy snow  Heavy precipitations  Wind > 20 kt
SIGMETs :     Misc.  Thunderstorms  Icing  Turbulence  Mountain Waves  Volcanic Ashes







- Airport Elevation : 220 ft
- IATA code : CWL
- Download approach charts


EGFF - Cardiff Rhoose

CURRENT METAR :
  • 171050Z AUTO VRB02KT 9999 SCT014 OVC039 10/08 Q1012

EXPIRED METARs :
  • 171020Z AUTO 16008KT 9999 OVC014 09/08 Q1012
  • 170950Z AUTO 16009KT 9999 BKN017 09/07 Q1011
  • 170920Z AUTO 15008KT 9999 BKN019 09/07 Q1011
  • 170850Z AUTO 12005KT 080V160 9999 OVC020 09/06 Q1012
  • 170820Z AUTO 10008KT 070V130 9999 FEW019 SCT026 09/06 Q1012

TAF TAF EGFF
Valid from the 17 at 06:00 until the 18 at 06:00 UTC


170454Z 1706/1806 13010KT 9999 FEW040
PROB30
TEMPO 1706/1709 8000
BECMG 1709/1712 19012KT
TEMPO 1709/1713 20015G25KT 8000 RA BKN012
ATIS : +44 1446 729 319
No reported NOTAMs for that airfield.



MET'MAP, your aeronautical weather chart ! - Copyright ORBIFLY December 2007 - Disclaimer

ORBIFLY MET'MAP TEAM :

Programming & Development : Alexandra Zaïnal
Concept & Development : Baudouin d'Aumeries
Co-Development & Prog : Marc-Olivier Méhu
Technical & hardware support : Manuel Goepfert

Contact : metmap@orbifly.com




SOURCES & CREDITS :

   NOAA